• Join FlightAware (Why Join?)
  • Login
  • US Flag 
11:48AM EDT


 

Airport Tracker/Info


-or-


 

Live Flight TrackerFlight Track Log ✈ BVN7571 ✈ 15-Oct-2013 ✈ KEAR - KOMA

Flight Track Log - Related Links

Times and Time Zones

All times are in EDT time to prevent confusion due to time zone crossing. See the BVN7571 flight status page for this flight to view local times or setup timezone preferences in your user account.

Time Position Orientation Groundspeed Altitude Reporting Facility
EDT Latitude Longitude Course Direction KTS MPH feet Rate Location/Type
07:59PM 40.7231 -98.9672 82° East 153 176 3,800  Level Minneapolis Center
08:00PM 40.7283 -98.9156 82° East 143 165 4,500 720 Climbing Minneapolis Center
08:01PM 40.7383 -98.8667 75° East 141 162 5,300 660 Climbing Minneapolis Center
08:02PM 40.7544 -98.8225 64° Northeast 138 159 5,900 600 Climbing Minneapolis Center
08:03PM 40.7622 -98.7783 77° East 136 157 6,600 540 Climbing Minneapolis Center
08:04PM 40.7681 -98.7219 82° East 132 152 7,100 480 Climbing Minneapolis Center
08:05PM 40.7742 -98.6733 81° East 132 152 7,600 480 Climbing Minneapolis Center
08:06PM 40.7878 -98.6261 69° East 136 157 8,100 420 Climbing Minneapolis Center
08:07PM 40.7994 -98.5769 73° East 138 159 8,500 420 Climbing Minneapolis Center
08:08PM 40.8114 -98.5269 72° East 140 161 9,000 240 Climbing Minneapolis Center
08:09PM 40.8244 -98.4600 76° East 149 171 9,100  Climbing Minneapolis Center
08:10PM 40.8369 -98.3975 75° East 167 192 9,100  Level Minneapolis Center
08:12PM 40.8492 -98.3353 75° East 174 200 9,100  Level Minneapolis Center
08:13PM 40.8619 -98.2739 75° East 173 199 9,100  Level Minneapolis Center
08:14PM 40.8731 -98.2147 76° East 169 194 9,100  Level Minneapolis Center
08:15PM 40.8839 -98.1561 76° East 166 191 9,100  Level Minneapolis Center
08:16PM 40.8975 -98.0861 76° East 164 189 9,100  Level Minneapolis Center
08:17PM 40.9089 -98.0272 76° East 165 190 9,100  Level Minneapolis Center
08:18PM 40.9203 -97.9686 76° East 165 190 9,100  Level Minneapolis Center
08:19PM 40.9319 -97.9100 75° East 165 190 9,100  Level Minneapolis Center
08:20PM 40.9425 -97.8500 77° East 166 191 9,100  Level Minneapolis Center
08:21PM 40.9553 -97.7914 74° East 167 192 9,100  Level Minneapolis Center
08:22PM 40.9656 -97.7314 77° East 167 192 9,100 -60 Level Minneapolis Center
08:23PM 40.9792 -97.6600 76° East 167 192 9,000 -60 Descending Minneapolis Center
08:24PM 40.9686 -97.5956 102° East 166 191 9,000  Level Minneapolis Center
08:25PM 40.9789 -97.5506 73° East 168 193 9,000  Level Minneapolis Center
08:25PM 41.0017 -97.5403 19° North 169 194 9,000  Level Minneapolis Center
08:26PM 40.9906 -97.4917 107° East 168 193 9,000  Level Minneapolis Center
08:26PM 41.0133 -97.4814 19° North 167 192 9,000  Level Minneapolis Center
08:27PM 41.0019 -97.4328 107° East 167 192 9,000  Level Minneapolis Center
08:27PM 41.0253 -97.4219 19° North 167 192 9,000 -120 Level Minneapolis Center
08:28PM 41.0375 -97.3606 75° East 168 193 8,900  Descending Minneapolis Center
08:29PM 41.0289 -97.3089 102° East 169 194 9,000 60 Climbing Minneapolis Center
08:29PM 41.0475 -97.2997 20° North 168 193 9,000  Level Minneapolis Center
08:30PM 41.0403 -97.2497 101° East 168 193 9,000  Level Minneapolis Center
08:30PM 41.0611 -97.2278 38° Northeast 169 194 9,000  Level Minneapolis Center
08:31PM 41.0517 -97.1908 109° East 167 192 9,000  Level Minneapolis Center
08:31PM 41.0725 -97.1678 40° Northeast 167 192 9,000  Level Minneapolis Center
08:32PM 41.0647 -97.1258 104° East 166 191 9,000  Level Minneapolis Center
08:32PM 41.0831 -97.1083 36° Northeast 167 192 9,000  Level Minneapolis Center
08:33PM 41.0778 -97.0611 98° East 165 190 9,000  Level Minneapolis Center
08:33PM 41.0947 -97.0494 27° Northeast 166 191 9,000  Level Minneapolis Center
08:34PM 41.0908 -96.9936 95° East 166 191 9,000  Level Minneapolis Center
08:34PM 41.1053 -96.9892 13° North 167 192 9,000  Level Minneapolis Center
08:35PM 41.0986 -96.9486 102° East 167 192 9,000  Level Minneapolis Center
08:35PM 41.1164 -96.9300 38° Northeast 167 192 9,000  Level Minneapolis Center
08:36PM 41.1117 -96.8836 98° East 169 194 9,000  Level Minneapolis Center
08:36PM 41.1281 -96.8689 34° Northeast 170 196 9,000  Level Minneapolis Center
08:37PM 41.1267 -96.8186 92° East 169 194 9,000  Level Minneapolis Center
08:37PM 41.1411 -96.7969 48° Northeast 168 193 9,000  Level Minneapolis Center
08:38PM 41.1378 -96.7594 97° East 170 196 9,000  Level Minneapolis Center
08:38PM 41.1528 -96.7358 50° Northeast 170 196 9,000  Level Minneapolis Center
08:39PM 41.1489 -96.6975 98° East 172 198 9,000  Level Minneapolis Center
08:39PM 41.1639 -96.6742 50° Northeast 172 198 9,000  Level Minneapolis Center
08:40PM 41.1553 -96.6303 105° East 183 211 9,000 -120 Level Minneapolis Center
08:40PM 41.1658 -96.6100 55° Northeast 174 200 8,900 -600 Descending Minneapolis Center
08:41PM 41.1553 -96.5611 106° East 191 220 8,400 -720 Descending Minneapolis Center
08:42PM 41.1644 -96.5397 60° Northeast 185 213 8,200 -420 Descending Minneapolis Center
08:42PM 41.1572 -96.4889 101° East 192 221 8,000 -600 Descending Minneapolis Center
08:43PM 41.1661 -96.4689 59° Northeast 189 217 7,600 -1,020 Descending Minneapolis Center
08:43PM 41.1592 -96.4169 100° East 205 236 7,000 -1,080 Descending Minneapolis Center
08:44PM 41.1656 -96.3803 77° East 195 224 6,500 -1,140 Descending Minneapolis Center
08:44PM 41.1589 -96.3478 105° East 201 231 6,000 -1,020 Descending Minneapolis Center
08:45PM 41.1656 -96.3067 78° East 199 229 5,500 -1,020 Descending Minneapolis Center
08:45PM 41.1608 -96.2756 101° East 190 219 5,000 -540 Descending Minneapolis Center
08:46PM 41.1653 -96.2389 81° East 194 223 5,000 -120 Level Minneapolis Center
08:46PM 41.1631 -96.2117 96° East 172 198 4,900 -120 Descending Minneapolis Center
08:47PM 41.1661 -96.1778 83° East 181 208 4,900  Level Minneapolis Center
08:47PM 41.1631 -96.1481 98° East 164 189 4,900  Level Minneapolis Center
08:48PM 41.1667 -96.1178 81° East 171 197 4,900  Level Minneapolis Center
08:48PM 41.1633 -96.0842 97° East 163 188 4,900 60 Level Minneapolis Center
08:49PM 41.1672 -96.0461 82° East 165 190 5,000  Climbing Minneapolis Center
08:49PM 41.1633 -96.0233 103° East 165 190 4,900  Descending Minneapolis Center
08:50PM 41.1611 -95.9858 94° East 165 190 5,000 60 Climbing Minneapolis Center
08:50PM 41.1528 -95.9581 112° Southeast 171 197 5,000 -300 Level Minneapolis Center
08:51PM 41.1500 -95.9244 96° East 168 193 4,700 -840 Descending Minneapolis Center
08:51PM 41.1433 -95.8761 100° East 206 237 4,000 -900 Descending Minneapolis Center
08:52PM 41.1447 -95.8547 85° East 179 206 3,800 -780 Descending Minneapolis Center
08:52PM 41.1678 -95.8344 34° Northeast 154 177 3,300 -780 Descending Minneapolis Center
08:53PM 41.1811 -95.8225 34° Northeast 165 190 3,000 -300 Descending Minneapolis Center
08:53PM 41.2039 -95.8136 16° North 129 148 3,000  Level Minneapolis Center
08:54PM 41.2203 -95.8136 360° North 145 167 3,000 -480 Level Minneapolis Center
08:54PM 41.2364 -95.8294 324° Northwest 105 121 2,500 -780 Descending Minneapolis Center
08:55PM 41.2456 -95.8353 334° Northwest 120 138 2,200 -600 Descending Minneapolis Center
08:55PM 41.2589 -95.8517 317° Northwest 102 117 1,900 -480 Descending Minneapolis Center
08:56PM 41.2686 -95.8578 335° Northwest 110 127 1,700 -600 Descending Minneapolis Center
08:57PM 41.2836 -95.8764 317° Northwest 108 124 1,300 -600 Descending Minneapolis Center
08:57PM 41.2936 -95.8811 340° North 109 125 1,100 -420 Descending Minneapolis Center